KLOR/LOR METAR and TAF weather

Enter ICAO airport designator
Station Type Date Time Source
KLOR METAR 2021/06/22 22:58 UTC NOAA

KLOR 222258Z AUTO 26004KT 10SM FEW310 29/22 A2995 RMK AO2 LTG DSNT W SLP123 T02850220


Station Type Date Time Source
KLOR Decoded METAR 2021/06/22 22:58 UTC NOAA

Fort Rucker, Lowe Army Heliport, AL, United States (KLOR) 31-21-32N 085-44-54W 93M
Jun 22, 2021 - 06:58 PM EDT / 2021.06.22 2258 UTC
Wind: from the W (260 degrees) at 5 MPH (4 KT):0
Visibility: 10 mile(s):0
Sky conditions: mostly clear
Weather: Lightning observed
Temperature: 83.3 F (28.5 C)
Dew Point: 71.6 F (22.0 C)
Relative Humidity: 67%
Pressure (altimeter): 29.95 in. Hg (1014 hPa)
ob: KLOR 222258Z AUTO 26004KT 10SM FEW310 29/22 A2995 RMK AO2 LTG DSNT W SLP123 T02850220
cycle: 23

Station Type Date Time Source
KLOR TAF UTC NOAA

Error!

Example: see airport list